Time;durP1;ratioP1;P1;durP2;ratioP2;P2;SDS_P1;SDS_P2;PMS_P1;PMS_P2;Temp;Humidity;BMP_temperature;BMP_pressure;BME280_temperature;BME280_humidity;BME280_pressure;Samples;Min_cycle;Max_cycle;Signal;HPM_P1;HPM_P2
2023/07/19 00:01:28;;;;;;;;;;;;;;;24.18;38.48;101167.22;4142489;28;19921;-59
2023/07/19 00:03:30;;;;;;;;;;;;;;;24.18;38.38;101165.38;4159393;28;20000;-59
2023/07/19 00:05:31;;;;;;;;;;;;;;;24.17;38.76;101157.44;4164240;28;19921;-60
2023/07/19 00:07:33;;;;;;;;;;;;;;;24.16;38.60;101161.97;4156841;28;19921;-60
2023/07/19 00:09:34;;;;;;;;;;;;;;;24.15;38.88;101164.78;4149428;28;20023;-60
2023/07/19 00:11:36;;;;;;;;;;;;;;;24.13;38.96;101162.22;4154092;28;19925;-60
2023/07/19 00:13:37;;;;;;;;;;;;;;;24.14;38.55;101157.72;4146556;28;20411;-60
2023/07/19 00:15:39;;;;;;;;;;;;;;;24.14;38.83;101160.41;4133163;28;20400;-59
2023/07/19 00:17:44;;;;;;;;;;;;;;;24.12;38.86;101162.38;4160969;28;19921;-59
2023/07/19 00:19:46;;;;;;;;;;;;;;;24.12;38.65;101167.75;4149527;28;19928;-59
2023/07/19 00:21:47;;;;;;;;;;;;;;;24.10;38.79;101165.19;4152442;28;19921;-60
2023/07/19 00:23:49;;;;;;;;;;;;;;;24.09;38.81;101155.41;4155407;28;19945;-59
2023/07/19 00:25:50;;;;;;;;;;;;;;;24.09;39.01;101158.09;4148353;28;19928;-59
2023/07/19 00:27:52;;;;;;;;;;;;;;;24.07;38.96;101152.88;4159969;28;19925;-60
2023/07/19 00:29:53;;;;;;;;;;;;;;;24.07;39.00;101160.94;4150096;28;19975;-59
2023/07/19 00:31:55;;;;;;;;;;;;;;;24.06;38.78;101163.75;4150367;28;19931;-60
2023/07/19 00:33:56;;;;;;;;;;;;;;;24.06;38.83;101167.28;4158489;28;19928;-59
2023/07/19 00:35:58;;;;;;;;;;;;;;;24.05;38.93;101162.91;4131387;28;19921;-60
2023/07/19 00:37:59;;;;;;;;;;;;;;;24.05;39.06;101170.94;4157872;28;19921;-59
2023/07/19 00:40:01;;;;;;;;;;;;;;;24.04;38.97;101163.03;4151645;28;19925;-60
2023/07/19 00:42:03;;;;;;;;;;;;;;;24.04;38.87;101165.72;4149852;28;20024;-59
2023/07/19 00:44:05;;;;;;;;;;;;;;;24.03;39.19;101158.63;4159042;28;20328;-59
2023/07/19 00:46:07;;;;;;;;;;;;;;;24.02;39.12;101157.81;4148585;28;19938;-59
2023/07/19 00:48:08;;;;;;;;;;;;;;;23.92;39.19;101148.78;4156244;28;20458;-59
2023/07/19 00:50:10;;;;;;;;;;;;;;;24.01;39.04;101157.91;4153307;28;20296;-59
2023/07/19 00:52:12;;;;;;;;;;;;;;;23.99;39.11;101163.41;4149950;28;20308;-59
2023/07/19 00:54:14;;;;;;;;;;;;;;;24.00;39.42;101154.38;4158711;28;20012;-59
2023/07/19 00:56:17;;;;;;;;;;;;;;;23.99;39.02;101160.75;4148520;28;19921;-59
2023/07/19 00:58:20;;;;;;;;;;;;;;;24.00;39.16;101158.88;4154268;28;19925;-59
2023/07/19 01:00:22;;;;;;;;;;;;;;;23.97;39.03;101160.00;4154226;28;19921;-60
2023/07/19 01:02:25;;;;;;;;;;;;;;;23.98;39.39;101160.88;4149203;28;19921;-59
2023/07/19 01:04:29;;;;;;;;;;;;;;;23.97;39.41;101160.00;4145567;28;19932;-59
2023/07/19 01:06:31;;;;;;;;;;;;;;;23.97;39.33;101165.38;4147298;28;19925;-60
2023/07/19 01:08:32;;;;;;;;;;;;;;;23.96;39.34;101162.84;4159286;28;19953;-60
2023/07/19 01:10:34;;;;;;;;;;;;;;;23.95;39.06;101156.63;4157659;28;20002;-60
2023/07/19 01:12:35;;;;;;;;;;;;;;;23.94;39.40;101160.28;4164340;28;20029;-59
2023/07/19 01:14:37;;;;;;;;;;;;;;;23.93;39.54;101156.72;4159483;28;20337;-59
2023/07/19 01:16:38;;;;;;;;;;;;;;;23.93;39.18;101155.91;4148372;28;19968;-59
2023/07/19 01:18:40;;;;;;;;;;;;;;;23.92;39.51;101151.47;4151167;28;19922;-60
2023/07/19 01:20:41;;;;;;;;;;;;;;;23.91;39.55;101150.63;4156505;28;19921;-59
2023/07/19 01:22:45;;;;;;;;;;;;;;;23.92;39.39;101156.84;4147932;28;19966;-60
2023/07/19 01:24:47;;;;;;;;;;;;;;;23.91;39.26;101155.13;4158456;28;19967;-59
2023/07/19 01:26:48;;;;;;;;;;;;;;;23.90;39.56;101156.97;4148985;28;19971;-59
2023/07/19 01:28:50;;;;;;;;;;;;;;;23.90;39.54;101156.09;4150039;28;19960;-59
2023/07/19 01:30:52;;;;;;;;;;;;;;;23.89;39.51;101159.78;4158152;28;19921;-59
2023/07/19 01:32:53;;;;;;;;;;;;;;;23.89;39.43;101162.47;4147366;28;20385;-60
2023/07/19 01:34:55;;;;;;;;;;;;;;;23.89;39.40;101157.97;4142720;28;19929;-59
2023/07/19 01:36:56;;;;;;;;;;;;;;;23.89;39.56;101154.41;4161765;28;20015;-60
2023/07/19 01:38:58;;;;;;;;;;;;;;;23.87;39.45;101157.22;4162847;28;19929;-59
2023/07/19 01:41:00;;;;;;;;;;;;;;;23.87;39.56;101162.59;4153047;28;19928;-59
2023/07/19 01:43:01;;;;;;;;;;;;;;;23.87;39.25;101161.75;4163624;28;20398;-59
2023/07/19 01:45:03;;;;;;;;;;;;;;;23.87;39.44;101161.75;4156166;28;20296;-59
2023/07/19 01:47:04;;;;;;;;;;;;;;;23.87;39.39;101167.13;4159607;28;19928;-59
2023/07/19 01:49:06;;;;;;;;;;;;;;;23.86;39.69;101174.31;4162214;28;19935;-59
2023/07/19 01:51:07;;;;;;;;;;;;;;;23.86;39.83;101170.78;4152797;28;19935;-59
2023/07/19 01:53:09;;;;;;;;;;;;;;;23.85;39.50;101175.31;4163621;28;20327;-59
2023/07/19 01:55:10;;;;;;;;;;;;;;;23.84;39.63;101170.06;4157658;28;20403;-59
2023/07/19 01:57:12;;;;;;;;;;;;;;;23.84;39.64;101167.38;4157963;28;19924;-59
2023/07/19 01:59:13;;;;;;;;;;;;;;;23.84;39.39;101181.69;4163161;28;20025;-59
2023/07/19 02:01:15;;;;;;;;;;;;;;;23.82;39.50;101172.88;4152121;28;19926;-59
2023/07/19 02:03:18;;;;;;;;;;;;;;;23.82;39.47;101180.09;4148549;28;20273;-59
2023/07/19 02:05:19;;;;;;;;;;;;;;;23.82;39.75;101180.09;4151405;28;19925;-58
2023/07/19 02:07:21;;;;;;;;;;;;;;;23.81;39.81;101178.41;4155360;28;19922;-59
2023/07/19 02:09:22;;;;;;;;;;;;;;;23.81;39.50;101186.47;4147855;28;19928;-59
2023/07/19 02:11:24;;;;;;;;;;;;;;;23.80;39.37;101171.31;4159041;28;19927;-59
2023/07/19 02:13:26;;;;;;;;;;;;;;;23.79;39.87;101181.19;4146688;28;19925;-59
2023/07/19 02:15:27;;;;;;;;;;;;;;;23.77;39.82;101184.00;4149900;28;19921;-59
2023/07/19 02:17:29;;;;;;;;;;;;;;;23.78;39.51;101187.56;4156719;28;20024;-59
2023/07/19 02:19:31;;;;;;;;;;;;;;;23.77;39.56;101181.34;4147502;28;20285;-60
2023/07/19 02:21:32;;;;;;;;;;;;;;;23.77;39.86;101180.50;4157429;28;20016;-58
2023/07/19 02:23:34;;;;;;;;;;;;;;;23.76;39.65;101185.00;4148573;28;20004;-60
2023/07/19 02:25:36;;;;;;;;;;;;;;;23.76;39.89;101182.31;4148338;28;20012;-60
2023/07/19 02:27:37;;;;;;;;;;;;;;;23.75;39.73;101185.97;4158228;28;19921;-59
2023/07/19 02:29:39;;;;;;;;;;;;;;;23.74;39.97;101189.66;4147464;28;19925;-59
2023/07/19 02:31:40;;;;;;;;;;;;;;;23.73;39.74;101185.28;4154830;28;20028;-59
2023/07/19 02:33:42;;;;;;;;;;;;;;;23.73;39.93;101189.78;4150094;28;20165;-59
2023/07/19 02:35:43;;;;;;;;;;;;;;;23.73;39.97;101193.31;4148462;28;19937;-59
2023/07/19 02:37:45;;;;;;;;;;;;;;;23.71;39.85;101189.91;4158182;28;19960;-59
2023/07/19 02:39:47;;;;;;;;;;;;;;;23.71;39.97;101192.59;4146237;28;19921;-59
2023/07/19 02:41:48;;;;;;;;;;;;;;;23.70;40.01;101192.72;4153765;28;19975;-59
2023/07/19 02:43:50;;;;;;;;;;;;;;;23.70;40.04;101200.78;4151891;28;19922;-60
2023/07/19 02:45:52;;;;;;;;;;;;;;;23.69;40.05;101196.41;4147949;28;19921;-59
2023/07/19 02:47:53;;;;;;;;;;;;;;;23.69;39.97;101201.75;4158267;28;19961;-60
2023/07/19 02:49:56;;;;;;;;;;;;;;;23.69;39.93;101209.81;4150626;28;19982;-59
2023/07/19 02:51:57;;;;;;;;;;;;;;;23.68;39.89;101208.09;4155457;28;20019;-60
2023/07/19 02:53:59;;;;;;;;;;;;;;;23.67;39.88;101209.09;4156848;28;19961;-59
2023/07/19 02:56:00;;;;;;;;;;;;;;;23.66;39.78;101205.56;4150585;28;19925;-59
2023/07/19 02:58:02;;;;;;;;;;;;;;;23.66;40.25;101204.69;4162276;28;20436;-59
2023/07/19 03:00:04;;;;;;;;;;;;;;;23.65;40.10;101208.38;4150429;28;19928;-59
2023/07/19 03:02:06;;;;;;;;;;;;;;;23.64;39.94;101207.50;4152941;28;20027;-60
2023/07/19 03:04:07;;;;;;;;;;;;;;;23.64;39.95;101207.50;4158340;28;20297;-59
2023/07/19 03:06:09;;;;;;;;;;;;;;;23.63;39.89;101211.16;4150465;28;20312;-59
2023/07/19 03:08:11;;;;;;;;;;;;;;;23.61;39.98;101214.00;4161007;28;19944;-59
2023/07/19 03:10:13;;;;;;;;;;;;;;;23.61;40.12;101211.31;4133773;28;19929;-60
2023/07/19 03:12:14;;;;;;;;;;;;;;;23.60;40.14;101220.34;4151894;28;19976;-59
2023/07/19 03:14:16;;;;;;;;;;;;;;;23.59;39.82;101215.94;4165569;28;19960;-59
2023/07/19 03:16:17;;;;;;;;;;;;;;;23.60;40.20;101220.34;4166321;28;19921;-59
2023/07/19 03:18:19;;;;;;;;;;;;;;;23.59;40.34;101223.16;4148719;28;19925;-59
2023/07/19 03:20:20;;;;;;;;;;;;;;;23.58;40.17;101219.59;4163525;28;20003;-60
2023/07/19 03:22:22;;;;;;;;;;;;;;;23.59;40.29;101220.47;4164892;28;19972;-59
2023/07/19 03:24:23;;;;;;;;;;;;;;;23.57;40.31;101227.81;4137082;28;19921;-59
2023/07/19 03:26:25;;;;;;;;;;;;;;;23.56;40.14;101226.97;4166574;28;19927;-59
2023/07/19 03:28:28;;;;;;;;;;;;;;;23.55;40.11;101230.63;4158634;28;19944;-59
2023/07/19 03:30:29;;;;;;;;;;;;;;;23.53;40.50;101219.16;4160984;28;19925;-59
2023/07/19 03:32:31;;;;;;;;;;;;;;;23.53;40.19;101232.56;4164768;28;19928;-59
2023/07/19 03:34:34;;;;;;;;;;;;;;;23.52;40.41;101225.50;4154260;28;19922;-59
2023/07/19 03:36:35;;;;;;;;;;;;;;;23.51;40.38;101234.50;4166309;28;19928;-59
2023/07/19 03:38:37;;;;;;;;;;;;;;;23.51;40.29;101231.84;4159705;28;19991;-59
2023/07/19 03:40:38;;;;;;;;;;;;;;;23.50;40.33;101235.53;4159928;28;19935;-59
2023/07/19 03:42:40;;;;;;;;;;;;;;;23.50;40.51;101226.59;4165208;28;20380;-59
2023/07/19 03:44:42;;;;;;;;;;;;;;;23.49;40.38;101233.81;4153159;28;19996;-59
2023/07/19 03:46:43;;;;;;;;;;;;;;;23.49;40.54;101239.19;4148820;28;19925;-59
2023/07/19 03:48:45;;;;;;;;;;;;;;;23.48;40.24;101240.16;4161229;28;19956;-59
2023/07/19 03:50:55;;;;;;;;;;;;;;;23.47;40.32;101251.88;4157954;28;19932;-59
2023/07/19 03:52:56;;;;;;;;;;;;;;;23.47;40.36;101243.81;4165730;28;20011;-59
2023/07/19 03:54:58;;;;;;;;;;;;;;;23.47;40.65;101257.25;4160794;28;20016;-59
2023/07/19 03:57:00;;;;;;;;;;;;;;;23.45;40.14;101252.00;4149643;28;19928;-59
2023/07/19 03:59:02;;;;;;;;;;;;;;;23.45;40.58;101257.38;4152654;28;19968;-59
2023/07/19 04:01:03;;;;;;;;;;;;;;;23.45;40.40;101257.38;4157710;28;19921;-59
2023/07/19 04:03:06;;;;;;;;;;;;;;;23.44;40.33;101263.72;4148994;28;19937;-59
2023/07/19 04:05:08;;;;;;;;;;;;;;;23.43;40.32;101263.84;4159949;28;19982;-60
2023/07/19 04:07:09;;;;;;;;;;;;;;;23.43;40.34;101270.06;4132831;28;19992;-59
2023/07/19 04:09:11;;;;;;;;;;;;;;;23.42;40.52;101270.19;4151131;28;20289;-59
2023/07/19 04:11:12;;;;;;;;;;;;;;;23.42;40.41;101264.81;4159030;28;19932;-59
2023/07/19 04:13:14;;;;;;;;;;;;;;;23.41;40.57;101272.00;4147277;28;19921;-60
2023/07/19 04:15:16;;;;;;;;;;;;;;;23.40;40.47;101273.00;4157927;28;20020;-62
2023/07/19 04:17:17;;;;;;;;;;;;;;;23.40;40.35;101280.19;4151697;28;19932;-59
2023/07/19 04:19:19;;;;;;;;;;;;;;;23.40;40.52;101282.88;4150108;28;19927;-59
2023/07/19 04:21:21;;;;;;;;;;;;;;;23.39;40.33;101286.53;4160162;28;19925;-59
2023/07/19 04:23:23;;;;;;;;;;;;;;;23.38;40.38;101285.69;4148948;28;19959;-59
2023/07/19 04:25:24;;;;;;;;;;;;;;;23.38;40.34;101285.69;4152042;28;19921;-60
2023/07/19 04:27:26;;;;;;;;;;;;;;;23.36;40.66;101282.28;4161076;28;20328;-59
2023/07/19 04:29:28;;;;;;;;;;;;;;;23.35;40.34;101285.09;4163793;28;20312;-59
2023/07/19 04:31:29;;;;;;;;;;;;;;;23.35;40.57;101285.94;4154182;28;19921;-59
2023/07/19 04:33:31;;;;;;;;;;;;;;;23.34;40.61;101286.06;4164638;28;19976;-59
2023/07/19 04:35:32;;;;;;;;;;;;;;;23.34;40.58;101288.75;4158158;28;19921;-59
2023/07/19 04:37:35;;;;;;;;;;;;;;;23.32;40.37;101288.88;4159183;28;19921;-60
2023/07/19 04:39:36;;;;;;;;;;;;;;;23.32;40.36;101288.88;4164287;28;19925;-60
2023/07/19 04:41:38;;;;;;;;;;;;;;;23.32;40.56;101288.00;4147127;28;20008;-58
2023/07/19 04:43:39;;;;;;;;;;;;;;;23.31;40.73;101297.03;4148133;28;19983;-59
2023/07/19 04:45:43;;;;;;;;;;;;;;;23.29;40.59;101292.66;4153153;28;19956;-59
2023/07/19 04:47:45;;;;;;;;;;;;;;;23.29;40.39;101297.16;4155968;28;19944;-59
2023/07/19 04:49:46;;;;;;;;;;;;;;;23.27;40.48;101294.59;4148790;28;19948;-59
2023/07/19 04:51:48;;;;;;;;;;;;;;;23.27;40.63;101294.59;4160252;28;20015;-59
2023/07/19 04:53:49;;;;;;;;;;;;;;;23.27;40.43;101294.59;4131748;28;19921;-59
2023/07/19 04:55:51;;;;;;;;;;;;;;;23.27;40.54;101296.44;4142541;28;20376;-59
2023/07/19 04:57:53;;;;;;;;;;;;;;;23.26;40.30;101292.91;4157358;28;19925;-59
2023/07/19 04:59:54;;;;;;;;;;;;;;;23.26;40.67;101295.59;4148429;28;19921;-59
2023/07/19 05:01:56;;;;;;;;;;;;;;;23.27;40.33;101299.97;4155626;28;20196;-59
2023/07/19 05:03:57;;;;;;;;;;;;;;;23.26;40.29;101298.25;4162440;28;19921;-59
2023/07/19 05:05:59;;;;;;;;;;;;;;;23.26;40.80;101298.25;4163118;28;20304;-59
2023/07/19 05:08:04;;;;;;;;;;;;;;;23.24;40.43;101294.84;4154341;28;19928;-59
2023/07/19 05:10:06;;;;;;;;;;;;;;;23.24;40.49;101300.22;4164449;28;20300;-59
2023/07/19 05:12:08;;;;;;;;;;;;;;;23.23;40.23;101301.22;4154626;28;19979;-60
2023/07/19 05:14:09;;;;;;;;;;;;;;;23.23;40.67;101290.47;4160971;28;19921;-59
2023/07/19 05:16:11;;;;;;;;;;;;;;;23.22;40.41;101291.44;4161507;28;20328;-59
2023/07/19 05:18:12;;;;;;;;;;;;;;;23.22;40.39;101293.25;4159189;28;19933;-59
2023/07/19 05:20:14;;;;;;;;;;;;;;;23.23;40.42;101301.22;4148478;28;19975;-59
2023/07/19 05:22:16;;;;;;;;;;;;;;;23.20;40.37;101296.06;4155336;28;19986;-59
2023/07/19 05:24:17;;;;;;;;;;;;;;;23.21;40.55;101304.97;4152011;28;19925;-57
2023/07/19 05:26:19;;;;;;;;;;;;;;;23.20;40.69;101298.75;4149093;28;19981;-57
2023/07/19 05:28:20;;;;;;;;;;;;;;;23.20;40.67;101295.25;4159273;28;20364;-57
2023/07/19 05:30:22;;;;;;;;;;;;;;;23.20;40.50;101305.97;4148182;28;19922;-57
2023/07/19 05:32:24;;;;;;;;;;;;;;;23.20;40.62;101309.50;4153715;28;19921;-58
2023/07/19 05:34:26;;;;;;;;;;;;;;;23.20;40.42;101308.66;4153139;28;19927;-58
2023/07/19 05:36:27;;;;;;;;;;;;;;;23.19;40.51;101310.47;4148325;28;19944;-57
2023/07/19 05:38:29;;;;;;;;;;;;;;;23.19;40.60;101315.00;4159386;28;19971;-57
2023/07/19 05:40:31;;;;;;;;;;;;;;;23.18;40.44;101322.16;4147792;28;19960;-58
2023/07/19 05:42:33;;;;;;;;;;;;;;;23.19;40.78;101317.69;4138389;28;19928;-58
2023/07/19 05:44:34;;;;;;;;;;;;;;;23.19;40.31;101317.69;4154608;28;19928;-58
2023/07/19 05:46:36;;;;;;;;;;;;;;;23.18;40.66;101314.13;4147943;28;19931;-58
2023/07/19 05:48:38;;;;;;;;;;;;;;;23.17;40.63;101317.78;4159214;28;20364;-58
2023/07/19 05:50:39;;;;;;;;;;;;;;;23.16;40.59;101321.44;4148136;28;19964;-58
2023/07/19 05:52:41;;;;;;;;;;;;;;;23.17;40.64;101308.88;4150385;28;20306;-58
2023/07/19 05:54:42;;;;;;;;;;;;;;;23.16;40.34;101316.06;4156207;28;19922;-58
2023/07/19 05:56:44;;;;;;;;;;;;;;;23.16;40.34;101320.56;4146671;28;19927;-58
2023/07/19 05:58:45;;;;;;;;;;;;;;;23.14;40.25;101321.53;4157303;28;19921;-60
2023/07/19 06:00:47;;;;;;;;;;;;;;;23.16;40.55;101328.59;4149919;28;19925;-58
2023/07/19 06:02:49;;;;;;;;;;;;;;;23.14;40.45;101329.56;4148648;28;19921;-60
2023/07/19 06:04:56;;;;;;;;;;;;;;;23.14;40.60;101332.25;4141945;28;20442;-58
2023/07/19 06:06:57;;;;;;;;;;;;;;;23.12;40.53;101334.22;4164266;28;20372;-58
2023/07/19 06:09:01;;;;;;;;;;;;;;;23.12;40.43;101339.59;4154344;28;19973;-58
2023/07/19 06:11:02;;;;;;;;;;;;;;;23.12;40.47;101336.03;4160828;28;20040;-58
2023/07/19 06:13:04;;;;;;;;;;;;;;;23.11;40.47;101342.38;4162073;28;19936;-59
2023/07/19 06:15:06;;;;;;;;;;;;;;;23.11;40.60;101329.84;4151659;28;19921;-58
2023/07/19 06:17:08;;;;;;;;;;;;;;;23.09;40.49;101326.41;4163841;28;19936;-58
2023/07/19 06:19:09;;;;;;;;;;;;;;;23.09;40.45;101328.25;4155789;28;20335;-58
2023/07/19 06:21:11;;;;;;;;;;;;;;;23.10;40.36;101338.84;4158448;28;19928;-58
2023/07/19 06:23:13;;;;;;;;;;;;;;;23.10;40.60;101333.50;4161927;28;19925;-57
2023/07/19 06:25:15;;;;;;;;;;;;;;;23.10;40.67;101336.19;4151237;28;20664;-57
2023/07/19 06:27:17;;;;;;;;;;;;;;;23.09;40.48;101337.16;4163802;28;19983;-58
2023/07/19 06:29:18;;;;;;;;;;;;;;;23.08;40.62;101335.44;4157400;28;19925;-58
2023/07/19 06:31:20;;;;;;;;;;;;;;;23.08;40.31;101335.44;4157438;28;19924;-58
2023/07/19 06:33:23;;;;;;;;;;;;;;;23.08;40.64;101335.44;4162814;28;19967;-58
2023/07/19 06:35:24;;;;;;;;;;;;;;;23.08;40.62;101331.91;4151388;28;19957;-58
2023/07/19 06:37:26;;;;;;;;;;;;;;;23.08;40.44;101331.91;4163867;28;19928;-57
2023/07/19 06:39:30;;;;;;;;;;;;;;;23.08;40.70;101326.53;4158636;28;19987;-58
2023/07/19 06:41:32;;;;;;;;;;;;;;;23.08;40.70;101321.19;4156225;28;20040;-57
2023/07/19 06:43:34;;;;;;;;;;;;;;;23.07;40.50;101320.31;4163914;28;20304;-58
2023/07/19 06:45:35;;;;;;;;;;;;;;;23.07;40.45;101312.25;4158270;28;19967;-57
2023/07/19 06:47:37;;;;;;;;;;;;;;;23.08;40.44;101318.50;4131284;28;19922;-57
2023/07/19 06:49:38;;;;;;;;;;;;;;;23.11;40.66;101324.47;4141054;28;19925;-58
2023/07/19 06:51:40;;;;;;;;;;;;;;;23.35;40.85;101328.88;4156234;28;20591;-60
2023/07/19 06:53:42;;;;;;;;;;;;;;;23.43;40.00;101329.13;4147163;28;20288;-58
2023/07/19 06:55:43;;;;;;;;;;;;;;;23.48;39.93;101333.28;4156173;28;19932;-58
2023/07/19 06:57:45;;;;;;;;;;;;;;;23.52;39.94;101338.25;4148788;28;19984;-58
2023/07/19 06:59:49;;;;;;;;;;;;;;;23.58;39.77;101335.06;4147866;28;19953;-58
2023/07/19 07:01:50;;;;;;;;;;;;;;;23.63;39.68;101329.31;4157357;28;19921;-59
2023/07/19 07:03:52;;;;;;;;;;;;;;;23.68;40.34;101337.88;4146793;28;19925;-58
2023/07/19 07:05:54;;;;;;;;;;;;;;;23.70;40.22;101332.38;4155395;28;19921;-59
2023/07/19 07:07:56;;;;;;;;;;;;;;;23.74;40.45;101337.38;4149603;28;19961;-58
2023/07/19 07:09:58;;;;;;;;;;;;;;;23.70;40.44;101335.06;4147853;28;20036;-59
2023/07/19 07:11:59;;;;;;;;;;;;;;;23.64;40.92;101335.56;4158140;28;20333;-59
2023/07/19 07:14:01;;;;;;;;;;;;;;;23.61;40.82;101337.50;4145872;28;19921;-59
2023/07/19 07:16:02;;;;;;;;;;;;;;;23.58;40.92;101329.69;4154141;28;19928;-59
2023/07/19 07:18:04;;;;;;;;;;;;;;;23.57;41.11;101341.44;4151817;28;20308;-59
2023/07/19 07:20:06;;;;;;;;;;;;;;;23.55;41.14;101339.81;4148236;28;19922;-59
2023/07/19 07:22:08;;;;;;;;;;;;;;;23.51;41.62;101339.22;4157521;28;19925;-59
2023/07/19 07:24:09;;;;;;;;;;;;;;;23.51;41.34;101336.53;4146307;28;19921;-59
2023/07/19 07:26:11;;;;;;;;;;;;;;;23.52;41.42;101338.25;4152544;28;19921;-59
2023/07/19 07:28:13;;;;;;;;;;;;;;;23.52;41.45;101334.72;4153225;28;19925;-59
2023/07/19 07:30:14;;;;;;;;;;;;;;;23.52;41.54;101332.03;4147303;28;19975;-59
2023/07/19 07:32:16;;;;;;;;;;;;;;;23.51;41.61;101333.00;4158871;28;19920;-59
2023/07/19 07:34:17;;;;;;;;;;;;;;;23.50;41.52;101326.81;4149487;28;20469;-59
2023/07/19 07:36:19;;;;;;;;;;;;;;;23.51;41.46;101322.28;4153318;28;20395;-59
2023/07/19 07:38:20;;;;;;;;;;;;;;;23.50;41.15;101328.63;4158092;28;19948;-59
2023/07/19 07:40:22;;;;;;;;;;;;;;;23.51;41.15;101330.31;4150226;28;19922;-59
2023/07/19 07:42:24;;;;;;;;;;;;;;;23.51;41.29;101333.00;4161132;28;19932;-59
2023/07/19 07:44:26;;;;;;;;;;;;;;;23.51;41.30;101333.00;4149528;28;19929;-59
2023/07/19 07:46:29;;;;;;;;;;;;;;;23.52;41.51;101334.72;4151777;28;19931;-59
2023/07/19 07:48:31;;;;;;;;;;;;;;;23.53;40.99;101336.44;4159222;28;19921;-58
2023/07/19 07:50:33;;;;;;;;;;;;;;;23.52;41.30;101335.56;4149504;28;19943;-59
2023/07/19 07:52:35;;;;;;;;;;;;;;;23.53;41.01;101333.75;4159627;28;19921;-58
2023/07/19 07:54:37;;;;;;;;;;;;;;;23.51;41.04;101341.06;4150687;28;19921;-59
2023/07/19 07:56:39;;;;;;;;;;;;;;;23.51;40.81;101338.38;4150532;28;20004;-58
2023/07/19 07:58:40;;;;;;;;;;;;;;;23.49;41.12;101341.19;4154806;28;19921;-59
2023/07/19 08:00:43;;;;;;;;;;;;;;;23.49;40.81;101338.50;4165714;28;20407;-59
2023/07/19 08:02:45;;;;;;;;;;;;;;;23.40;40.92;101326.69;4161815;28;19975;-58
2023/07/19 08:04:47;;;;;;;;;;;;;;;23.47;41.10;101339.63;4151738;28;19921;-58
2023/07/19 08:06:49;;;;;;;;;;;;;;;23.47;41.36;101345.81;4150651;28;19960;-58
2023/07/19 08:08:50;;;;;;;;;;;;;;;23.49;41.14;101337.63;4160302;28;20011;-59
2023/07/19 08:10:52;;;;;;;;;;;;;;;23.48;40.94;101342.16;4149636;28;19921;-58
2023/07/19 08:12:53;;;;;;;;;;;;;;;23.49;41.10;101340.31;4156042;28;19968;-59
2023/07/19 08:14:55;;;;;;;;;;;;;;;23.48;40.82;101335.97;4154483;28;19933;-57
2023/07/19 08:16:56;;;;;;;;;;;;;;;23.48;40.92;101338.66;4148996;28;19928;-57
2023/07/19 08:19:02;;;;;;;;;;;;;;;23.50;41.03;101340.22;4134436;28;19930;-57
2023/07/19 08:21:05;;;;;;;;;;;;;;;23.48;41.05;101344.84;4149049;28;19921;-57
2023/07/19 08:23:07;;;;;;;;;;;;;;;23.44;41.12;101338.03;4149862;28;19976;-57
2023/07/19 08:25:09;;;;;;;;;;;;;;;23.41;41.41;101332.91;4153151;28;19947;-56
2023/07/19 08:27:27;;;;;;;;;;;;;;;23.37;41.55;101350.25;4163913;28;20340;-57
2023/07/19 08:29:28;;;;;;;;;;;;;;;23.37;41.60;101337.66;4154375;28;19931;-56
2023/07/19 08:31:30;;;;;;;;;;;;;;;23.37;41.67;101342.19;4142358;28;19922;-56
2023/07/19 08:33:32;;;;;;;;;;;;;;;23.53;42.50;101345.31;4139474;28;20301;-59
2023/07/19 08:35:33;;;;;;;;;;;;;;;23.67;43.15;101338.84;4142861;28;19921;-56
2023/07/19 08:37:35;;;;;;;;;;;;;;;23.75;41.74;101335.53;4145742;28;19921;-55
2023/07/19 08:39:36;;;;;;;;;;;;;;;23.81;41.73;101344.94;4145544;28;19983;-55
2023/07/19 08:41:38;;;;;;;;;;;;;;;23.89;42.28;101340.63;4138313;28;19929;-52
2023/07/19 08:43:41;;;;;;;;;;;;;;;23.95;41.50;101339.31;4155594;28;20356;-57
2023/07/19 08:45:42;;;;;;;;;;;;;;;24.00;41.86;101342.47;4156455;28;20343;-57
2023/07/19 08:47:44;;;;;;;;;;;;;;;23.99;40.52;101338.06;4141699;28;20008;-56
2023/07/19 08:49:46;;;;;;;;;;;;;;;23.97;41.17;101341.84;4143683;28;19922;-57
2023/07/19 08:51:48;;;;;;;;;;;;;;;24.00;40.18;101337.09;4149513;28;20253;-53
2023/07/19 08:53:49;;;;;;;;;;;;;;;24.04;40.32;101337.69;4146275;28;19921;-56
2023/07/19 08:55:52;;;;;;;;;;;;;;;24.07;39.99;101343.66;4142384;28;20307;-55
2023/07/19 08:57:53;;;;;;;;;;;;;;;24.16;39.99;101335.81;4143877;28;20011;-56
2023/07/19 08:59:55;;;;;;;;;;;;;;;24.26;39.67;101333.22;4146686;28;19921;-57
2023/07/19 09:01:56;;;;;;;;;;;;;;;24.33;40.00;101332.56;4157569;28;19929;-56
2023/07/19 09:03:58;;;;;;;;;;;;;;;24.37;39.86;101333.97;4148971;28;19925;-54
2023/07/19 09:06:00;;;;;;;;;;;;;;;24.45;39.30;101335.16;4160713;28;20343;-54
2023/07/19 09:08:02;;;;;;;;;;;;;;;24.32;38.81;101332.69;4150516;28;20375;-55
2023/07/19 09:10:04;;;;;;;;;;;;;;;24.42;39.56;101322.00;4156249;28;19943;-55
2023/07/19 09:12:07;;;;;;;;;;;;;;;24.52;38.63;101321.09;4149064;28;19921;-55
2023/07/19 09:14:09;;;;;;;;;;;;;;;24.63;38.28;101322.88;4144618;28;19959;-56
2023/07/19 09:16:10;;;;;;;;;;;;;;;24.74;38.29;101321.09;4142837;28;19928;-56
2023/07/19 09:18:12;;;;;;;;;;;;;;;24.66;38.24;101321.78;4127892;28;19922;-57
2023/07/19 09:20:14;;;;;;;;;;;;;;;24.61;38.50;101332.06;4147831;28;19961;-55
2023/07/19 09:22:16;;;;;;;;;;;;;;;24.64;37.57;101337.16;4143992;28;19921;-56
2023/07/19 09:24:17;;;;;;;;;;;;;;;24.43;38.37;101331.78;4142387;28;19921;-56
2023/07/19 09:26:19;;;;;;;;;;;;;;;24.42;37.89;101319.31;4144296;28;19931;-55
2023/07/19 09:28:21;;;;;;;;;;;;;;;24.56;38.12;101327.06;4139068;28;20409;-56
2023/07/19 09:30:23;;;;;;;;;;;;;;;24.55;37.56;101334.25;4146781;28;20125;-56
2023/07/19 09:32:25;;;;;;;;;;;;;;;24.55;37.56;101336.09;4142614;28;19921;-56
2023/07/19 09:34:36;;;;;;;;;;;;;;;24.62;37.49;101334.59;4138951;28;19925;-56
2023/07/19 09:36:39;;;;;;;;;;;;;;;24.58;36.63;101333.13;4141215;28;20362;-56
2023/07/19 09:38:41;;;;;;;;;;;;;;;24.55;36.97;101330.72;4138693;28;19949;-56
2023/07/19 09:40:42;;;;;;;;;;;;;;;24.67;37.45;101339.63;4146762;28;19974;-55
2023/07/19 09:42:44;;;;;;;;;;;;;;;24.76;37.28;101319.13;4145558;28;19925;-56
2023/07/19 09:44:46;;;;;;;;;;;;;;;24.81;36.68;101333.03;4138585;28;19974;-56
2023/07/19 09:46:48;;;;;;;;;;;;;;;24.86;36.81;101328.09;4158408;28;19921;-55
2023/07/19 09:48:50;;;;;;;;;;;;;;;24.77;37.24;101316.31;4163211;28;19928;-57
2023/07/19 09:50:53;;;;;;;;;;;;;;;24.83;36.43;101337.28;4153525;28;20004;-59
2023/07/19 09:52:57;;;;;;;;;;;;;;;24.70;36.97;101329.44;4153736;28;20340;-57
2023/07/19 09:54:59;;;;;;;;;;;;;;;24.72;36.93;101329.31;4145917;28;20435;-57
2023/07/19 09:57:02;;;;;;;;;;;;;;;24.67;37.07;101329.69;4158677;28;20414;-57
2023/07/19 09:59:22;;;;;;;;;;;;;;;24.76;36.93;101328.03;4146706;28;19989;-67
2023/07/19 10:01:24;;;;;;;;;;;;;;;24.74;37.00;101327.34;4152405;28;20383;-61
2023/07/19 10:03:26;;;;;;;;;;;;;;;24.72;37.17;101329.31;4158670;28;19957;-63
2023/07/19 10:05:28;;;;;;;;;;;;;;;24.70;37.14;101331.28;4160460;28;19921;-63
2023/07/19 10:07:30;;;;;;;;;;;;;;;24.65;37.38;101331.63;4151721;28;20340;-66
2023/07/19 10:10:01;;;;;;;;;;;;;;;24.62;37.60;101334.59;4162955;28;19921;-63
2023/07/19 10:12:07;;;;;;;;;;;;;;;24.54;37.52;101324.47;4153768;28;19995;-63
2023/07/19 10:14:08;;;;;;;;;;;;;;;24.53;37.32;101328.19;4142102;28;20361;-62
2023/07/19 10:16:33;;;;;;;;;;;;;;;24.47;37.56;101323.28;4139242;28;19921;-62
2023/07/19 10:18:36;;;;;;;;;;;;;;;24.49;37.27;101321.34;4155591;28;20377;-62
2023/07/19 10:20:40;;;;;;;;;;;;;;;24.49;37.28;101325.88;4146404;28;19930;-63
2023/07/19 10:22:45;;;;;;;;;;;;;;;24.39;37.44;101326.66;4157353;28;19957;-63
2023/07/19 10:25:02;;;;;;;;;;;;;;;24.40;37.68;101330.22;4145991;28;20381;-64
2023/07/19 10:27:05;;;;;;;;;;;;;;;24.38;37.77;101326.78;4150378;28;19925;-63